KBLH/BLH METAR and TAF weather

Enter ICAO airport designator
Station Type Date Time Source
KBLH METAR 2022/01/18 06:52 UTC NOAA

KBLH 180652Z AUTO 20004KT 10SM OVC090 16/M01 A3000 RMK AO2 SLP155 T01611011


Station Type Date Time Source
KBLH Decoded METAR 2022/01/18 06:52 UTC NOAA

BLYTHE AIRPORT, CA, United States (KBLH) 33-37N 114-43W 119M
Jan 18, 2022 - 01:52 AM EST / 2022.01.18 0652 UTC
Wind: from the SSW (200 degrees) at 5 MPH (4 KT):0
Visibility: 10 mile(s):0
Sky conditions: overcast
Temperature: 61.0 F (16.1 C)
Dew Point: 30.0 F (-1.1 C)
Relative Humidity: 30%
Pressure (altimeter): 30 in. Hg (1015 hPa)
ob: KBLH 180652Z AUTO 20004KT 10SM OVC090 16/M01 A3000 RMK AO2 SLP155 T01611011
cycle: 7

Station Type Date Time Source
KBLH TAF 2022/01/18 06:22 UTC NOAA

TAF KBLH 180520Z 1806/1906 26004KT P6SM BKN090
FM181200 VRB04KT P6SM BKN080
FM181900 34005KT P6SM SCT080

Example: see airport list